createdAt,value
2023-06-14T00:01:50.968Z,19.83
2023-06-14T00:04:19.429Z,22.58
2023-06-14T00:06:46.680Z,14.18
2023-06-14T00:09:14.416Z,21.83
2023-06-14T00:11:42.797Z,22.50
2023-06-14T00:14:10.107Z,19.90
2023-06-14T00:16:38.350Z,24.55
2023-06-14T00:19:06.380Z,19.00
2023-06-14T00:21:33.806Z,18.25
2023-06-14T00:24:01.228Z,21.35
2023-06-14T00:26:28.463Z,17.75
2023-06-14T00:28:56.209Z,16.05
2023-06-14T00:31:24.161Z,21.83
2023-06-14T00:33:51.413Z,19.60
2023-06-14T00:36:18.787Z,25.80
2023-06-14T00:38:46.035Z,21.17
2023-06-14T00:41:13.250Z,16.98
2023-06-14T00:43:43.393Z,21.67
2023-06-14T00:46:10.718Z,20.83
2023-06-14T00:48:40.247Z,16.83
2023-06-14T00:51:07.888Z,17.48
2023-06-14T00:53:37.120Z,18.27
2023-06-14T00:56:05.038Z,20.02
2023-06-14T00:58:33.520Z,21.25
2023-06-14T01:01:00.904Z,21.65
2023-06-14T01:03:29.677Z,19.92
2023-06-14T01:06:28.103Z,19.10
2023-06-14T01:09:42.121Z,19.42
2023-06-14T01:12:18.522Z,26.92
2023-06-14T01:14:47.197Z,22.27
2023-06-14T01:17:17.965Z,26.83
2023-06-14T01:19:46.937Z,24.55
2023-06-14T01:22:16.099Z,21.80
2023-06-14T01:24:46.258Z,21.58
2023-06-14T01:27:14.642Z,17.77
2023-06-14T01:29:47.166Z,22.38
2023-06-14T01:32:17.288Z,20.63
2023-06-14T01:34:44.623Z,20.05
2023-06-14T01:37:14.386Z,20.70
2023-06-14T01:39:43.966Z,18.17
2023-06-14T01:42:13.096Z,20.87
2023-06-14T01:44:44.403Z,23.83
2023-06-14T01:47:13.237Z,21.33
2023-06-14T01:49:41.223Z,20.95
2023-06-14T01:52:11.297Z,25.20
2023-06-14T01:54:43.390Z,22.38
2023-06-14T01:57:11.811Z,16.27
2023-06-14T01:59:39.247Z,16.15
2023-06-14T02:02:06.451Z,21.45
2023-06-14T02:04:33.836Z,20.30
2023-06-14T02:07:01.212Z,20.73
2023-06-14T02:09:28.467Z,20.27
2023-06-14T02:11:56.004Z,20.83
2023-06-14T02:14:24.519Z,30.17
2023-06-14T02:16:51.881Z,17.40
2023-06-14T02:19:21.736Z,23.08
2023-06-14T02:21:49.687Z,30.98
2023-06-14T02:24:17.991Z,25.30
2023-06-14T02:26:45.344Z,28.83
2023-06-14T02:29:17.360Z,20.50
2023-06-14T02:31:44.569Z,22.42
2023-06-14T02:34:13.205Z,20.42
2023-06-14T02:36:42.943Z,21.83
2023-06-14T02:39:12.050Z,21.75
2023-06-14T02:41:39.667Z,20.48
2023-06-14T02:44:08.260Z,25.15
2023-06-14T02:46:35.827Z,21.58
2023-06-14T02:49:03.544Z,29.60
2023-06-14T02:51:32.279Z,24.20
2023-06-14T02:53:59.464Z,22.75
2023-06-14T02:56:27.464Z,18.98
2023-06-14T02:58:55.096Z,23.50
2023-06-14T03:01:23.048Z,24.63
2023-06-14T03:03:51.047Z,24.98
2023-06-14T03:06:18.494Z,26.77
2023-06-14T03:08:50.129Z,26.20
2023-06-14T03:11:21.934Z,19.25
2023-06-14T03:13:49.966Z,20.70
2023-06-14T03:16:19.775Z,24.65
2023-06-14T03:18:47.258Z,28.98
2023-06-14T03:21:17.143Z,21.45
2023-06-14T03:23:46.095Z,19.02
2023-06-14T03:26:19.157Z,22.80
2023-06-14T03:28:50.866Z,19.42
2023-06-14T03:31:20.569Z,21.35
2023-06-14T03:33:49.208Z,21.00
2023-06-14T03:36:16.519Z,24.70
2023-06-14T03:38:44.379Z,21.75
2023-06-14T03:41:13.226Z,21.38
2023-06-14T03:43:40.910Z,26.02
2023-06-14T03:46:08.688Z,24.75
2023-06-14T03:48:36.603Z,16.23
2023-06-14T03:51:04.120Z,25.85
2023-06-14T03:53:32.034Z,22.75
2023-06-14T03:56:01.359Z,19.23
2023-06-14T03:58:37.629Z,23.05
2023-06-14T04:01:05.453Z,39.35
2023-06-14T04:03:33.057Z,31.25
2023-06-14T04:06:02.239Z,21.23
2023-06-14T04:08:29.642Z,16.05
2023-06-14T04:10:59.072Z,17.63
2023-06-14T04:13:26.236Z,12.48
2023-06-14T04:15:53.918Z,18.80
2023-06-14T04:18:27.053Z,22.00
2023-06-14T04:20:54.836Z,16.00
2023-06-14T04:23:23.400Z,15.80
2023-06-14T04:25:51.099Z,21.63
2023-06-14T04:28:19.653Z,12.23
2023-06-14T04:30:49.823Z,16.48
2023-06-14T04:33:19.498Z,19.00
2023-06-14T04:35:48.931Z,16.88
2023-06-14T04:38:19.956Z,16.40
2023-06-14T04:40:47.771Z,14.15
2023-06-14T04:45:50.211Z,13.95
2023-06-14T04:48:20.779Z,18.90
2023-06-14T04:50:54.170Z,16.05
2023-06-14T04:53:24.195Z,12.57
2023-06-14T04:55:54.652Z,14.40
2023-06-14T04:58:22.724Z,22.48
2023-06-14T05:00:50.348Z,19.50
2023-06-14T05:03:19.993Z,12.93
2023-06-14T05:05:47.975Z,15.25
2023-06-14T05:08:15.192Z,10.27
2023-06-14T05:10:42.432Z,12.35
2023-06-14T05:13:09.570Z,13.05
2023-06-14T05:15:37.256Z,12.48
2023-06-14T05:18:04.559Z,9.73
2023-06-14T05:20:32.173Z,17.25
2023-06-14T05:22:59.581Z,15.50
2023-06-14T05:25:26.925Z,10.20
2023-06-14T05:27:54.126Z,11.98
2023-06-14T05:30:21.449Z,10.68
2023-06-14T05:32:48.739Z,15.75
2023-06-14T05:35:16.587Z,12.32
2023-06-14T05:37:43.926Z,8.48
2023-06-14T05:40:11.573Z,8.13
2023-06-14T05:42:38.773Z,9.02
2023-06-14T05:45:07.373Z,13.02
2023-06-14T05:47:34.745Z,9.45
2023-06-14T05:50:02.017Z,8.35
2023-06-14T05:52:32.701Z,14.93
2023-06-14T05:54:59.956Z,7.70
2023-06-14T05:57:27.151Z,9.77
2023-06-14T05:59:54.297Z,9.35
2023-06-14T06:02:21.569Z,11.88
2023-06-14T06:04:48.794Z,6.38
2023-06-14T06:07:16.074Z,9.57
2023-06-14T06:09:43.384Z,8.32
2023-06-14T06:12:11.535Z,7.10
2023-06-14T06:14:38.834Z,4.38
2023-06-14T06:17:06.409Z,5.30
2023-06-14T06:19:33.734Z,3.13
2023-06-14T06:22:00.891Z,4.90
2023-06-14T06:24:28.174Z,8.25
2023-06-14T06:26:55.361Z,5.13
2023-06-14T06:29:22.743Z,8.57
2023-06-14T06:31:49.981Z,6.90
2023-06-14T06:34:18.182Z,4.45
2023-06-14T06:36:46.252Z,12.15
2023-06-14T06:39:13.748Z,11.25
2023-06-14T06:41:41.130Z,6.65
2023-06-14T06:44:08.857Z,8.98
2023-06-14T06:46:36.293Z,2.80
2023-06-14T06:49:03.545Z,4.78
2023-06-14T06:51:30.736Z,7.40
2023-06-14T06:53:57.910Z,7.93
2023-06-14T06:56:25.662Z,7.93
2023-06-14T06:58:52.928Z,10.32
2023-06-14T07:01:21.087Z,5.35
2023-06-14T07:03:48.864Z,5.93
2023-06-14T07:06:19.820Z,2.25
2023-06-14T07:08:49.529Z,7.68
2023-06-14T07:11:16.801Z,7.35
2023-06-14T07:13:43.923Z,4.55
2023-06-14T07:16:11.305Z,12.02
2023-06-14T07:18:38.781Z,5.13
2023-06-14T07:21:06.043Z,3.22
2023-06-14T07:23:33.213Z,4.60
2023-06-14T07:26:00.447Z,5.40
2023-06-14T07:28:27.684Z,11.05
2023-06-14T07:30:54.937Z,3.25
2023-06-14T07:33:22.279Z,6.35
2023-06-14T07:35:50.525Z,4.10
2023-06-14T07:38:17.708Z,5.57
2023-06-14T07:40:44.942Z,5.10
2023-06-14T07:43:12.216Z,7.68
2023-06-14T07:45:40.159Z,7.63
2023-06-14T07:48:11.152Z,13.30
2023-06-14T07:50:38.528Z,4.20
2023-06-14T07:53:05.835Z,13.68
2023-06-14T07:55:45.574Z,6.70
2023-06-14T07:58:20.064Z,5.20
2023-06-14T08:00:48.460Z,8.32
2023-06-14T08:03:15.834Z,7.07
2023-06-14T08:05:43.669Z,8.15
2023-06-14T08:08:10.929Z,8.82
2023-06-14T08:10:38.234Z,4.45
2023-06-14T08:13:05.485Z,7.75
2023-06-14T08:15:32.950Z,6.35
2023-06-14T08:18:01.763Z,13.77
2023-06-14T08:20:29.323Z,5.72
2023-06-14T08:22:58.125Z,6.97
2023-06-14T08:25:25.815Z,10.85
2023-06-14T08:27:53.055Z,4.63
2023-06-14T08:30:20.428Z,10.13
2023-06-14T08:32:51.528Z,7.85
2023-06-14T08:35:21.191Z,9.23
2023-06-14T08:37:48.465Z,4.72
2023-06-14T08:40:23.487Z,7.30
2023-06-14T08:42:55.370Z,9.32
2023-06-14T08:45:26.289Z,7.20
2023-06-14T08:47:59.665Z,6.63
2023-06-14T08:50:32.055Z,5.22
2023-06-14T08:53:03.900Z,4.57
2023-06-14T08:55:37.128Z,12.77
2023-06-14T08:58:06.394Z,3.88
2023-06-14T09:00:34.790Z,6.38
2023-06-14T09:03:02.521Z,8.18
2023-06-14T09:05:30.251Z,7.43
2023-06-14T09:08:04.092Z,3.58
2023-06-14T09:10:39.028Z,7.97
2023-06-14T09:13:07.795Z,5.03
2023-06-14T09:15:36.528Z,6.10
2023-06-14T09:18:05.559Z,10.07
2023-06-14T09:20:33.512Z,4.47
2023-06-14T09:23:02.150Z,4.68
2023-06-14T09:27:59.625Z,7.63
2023-06-14T09:30:26.867Z,6.70
2023-06-14T09:32:54.462Z,8.35
2023-06-14T09:35:21.945Z,9.32
2023-06-14T09:37:49.137Z,4.43
2023-06-14T09:40:22.058Z,12.35
2023-06-14T09:42:49.816Z,8.50
2023-06-14T09:45:22.845Z,4.05
2023-06-14T09:48:05.420Z,9.32
2023-06-14T09:50:34.260Z,3.88
2023-06-14T09:53:08.539Z,8.13
2023-06-14T09:55:38.453Z,16.95
2023-06-14T09:58:09.087Z,4.97
2023-06-14T10:00:38.803Z,8.27
2023-06-14T10:03:21.176Z,13.52
2023-06-14T10:05:51.423Z,7.90
2023-06-14T10:08:26.085Z,8.23
2023-06-14T10:10:54.610Z,6.68
2023-06-14T10:13:22.257Z,5.57
2023-06-14T10:16:14.212Z,5.65
2023-06-14T10:19:21.838Z,4.90
2023-06-14T10:22:15.915Z,7.10
2023-06-14T10:24:44.907Z,6.50
2023-06-14T10:27:18.472Z,3.37
2023-06-14T10:29:54.626Z,10.20
2023-06-14T10:32:22.750Z,5.40
2023-06-14T10:35:01.656Z,4.15
2023-06-14T10:37:31.775Z,10.00
2023-06-14T10:39:59.233Z,6.25
2023-06-14T10:42:33.358Z,3.13
2023-06-14T10:45:01.903Z,4.65
2023-06-14T10:47:40.724Z,7.88
2023-06-14T10:50:09.382Z,4.93
2023-06-14T10:52:40.197Z,11.55
2023-06-14T10:55:20.210Z,5.90
2023-06-14T10:57:59.898Z,3.70
2023-06-14T11:00:30.094Z,5.07
2023-06-14T11:03:15.857Z,5.95
2023-06-14T11:05:59.625Z,9.60
2023-06-14T11:08:57.688Z,4.10
2023-06-14T11:11:30.920Z,3.95
2023-06-14T11:13:58.197Z,8.25
2023-06-14T11:16:28.978Z,6.32
2023-06-14T11:18:56.750Z,5.22
2023-06-14T11:21:26.453Z,7.82
2023-06-14T11:23:54.455Z,5.05
2023-06-14T11:26:32.457Z,9.80
2023-06-14T11:29:01.288Z,6.00
2023-06-14T11:31:30.064Z,4.23
2023-06-14T11:33:59.295Z,5.10
2023-06-14T11:36:33.822Z,4.28
2023-06-14T11:39:09.947Z,7.65
2023-06-14T11:41:42.613Z,4.20
2023-06-14T11:44:10.601Z,5.93
2023-06-14T11:46:37.977Z,5.30
2023-06-14T11:49:08.108Z,7.35
2023-06-14T11:51:36.053Z,4.45
2023-06-14T11:54:04.600Z,4.90
2023-06-14T11:56:35.300Z,3.05
2023-06-14T11:59:05.039Z,15.82
2023-06-14T12:01:33.390Z,6.45
2023-06-14T12:04:02.076Z,3.63
2023-06-14T12:06:34.497Z,3.17
2023-06-14T12:09:06.056Z,3.58
2023-06-14T12:11:35.031Z,5.90
2023-06-14T12:14:04.025Z,4.53
2023-06-14T12:16:37.006Z,4.93
2023-06-14T12:19:16.051Z,6.70
2023-06-14T12:21:45.564Z,3.53
2023-06-14T12:24:14.415Z,5.90
2023-06-14T12:26:42.972Z,3.53
2023-06-14T12:29:11.510Z,6.03
2023-06-14T12:31:39.214Z,4.05
2023-06-14T12:34:06.565Z,4.45
2023-06-14T12:36:33.828Z,5.10
2023-06-14T12:39:01.393Z,5.57
2023-06-14T12:41:29.165Z,6.28
2023-06-14T12:43:56.632Z,5.13
2023-06-14T12:46:23.867Z,8.68
2023-06-14T12:48:51.250Z,5.07
2023-06-14T12:51:18.449Z,4.70
2023-06-14T12:53:45.719Z,4.32
2023-06-14T12:56:12.979Z,5.30
2023-06-14T12:58:40.166Z,5.80
2023-06-14T13:01:07.443Z,6.38
2023-06-14T13:03:37.874Z,5.80
2023-06-14T13:06:05.549Z,3.97
2023-06-14T13:08:32.818Z,5.68
2023-06-14T13:11:00.030Z,5.60
2023-06-14T13:13:27.570Z,4.40
2023-06-14T13:15:54.802Z,4.22
2023-06-14T13:18:22.262Z,5.28
2023-06-14T13:20:49.625Z,11.02
2023-06-14T13:23:17.332Z,8.18
2023-06-14T13:25:45.190Z,7.35
2023-06-14T13:28:12.582Z,6.18
2023-06-14T13:30:39.866Z,7.72
2023-06-14T13:33:07.184Z,2.78
2023-06-14T13:35:34.459Z,7.28
2023-06-14T13:38:02.384Z,5.00
2023-06-14T13:40:29.843Z,5.40
2023-06-14T13:42:57.056Z,6.47
2023-06-14T13:45:24.444Z,3.15
2023-06-14T13:47:51.834Z,6.55
2023-06-14T13:50:19.400Z,6.13
2023-06-14T13:52:46.679Z,3.67
2023-06-14T13:55:13.882Z,3.78
2023-06-14T13:57:41.176Z,4.65
2023-06-14T14:00:09.769Z,7.18
2023-06-14T14:02:44.170Z,4.45
2023-06-14T14:05:11.621Z,3.42
2023-06-14T14:07:39.425Z,4.93
2023-06-14T14:10:11.338Z,5.35
2023-06-14T14:12:42.830Z,5.18
2023-06-14T14:15:14.371Z,3.53
2023-06-14T14:17:42.635Z,6.05
2023-06-14T14:20:10.723Z,5.25
2023-06-14T14:22:39.311Z,10.60
2023-06-14T14:25:06.640Z,4.47
2023-06-14T14:27:33.823Z,3.55
2023-06-14T14:30:01.200Z,5.00
2023-06-14T14:32:29.819Z,4.55
2023-06-14T14:34:57.046Z,6.75
2023-06-14T14:37:24.222Z,5.70
2023-06-14T14:39:51.360Z,3.60
2023-06-14T14:42:19.742Z,5.95
2023-06-14T14:44:47.099Z,5.10
2023-06-14T14:47:14.442Z,7.28
2023-06-14T14:49:43.044Z,5.45
2023-06-14T14:52:22.943Z,6.90
2023-06-14T14:54:52.021Z,4.95
2023-06-14T14:57:19.226Z,5.28
2023-06-14T14:59:46.758Z,6.50
2023-06-14T15:02:13.983Z,8.48
2023-06-14T15:04:41.496Z,4.47
2023-06-14T15:07:09.269Z,9.25
2023-06-14T15:09:36.618Z,6.50
2023-06-14T15:12:04.047Z,3.83
2023-06-14T15:14:31.444Z,4.47
2023-06-14T15:16:59.845Z,2.28
2023-06-14T15:19:27.243Z,6.25
2023-06-14T15:21:54.604Z,6.07
2023-06-14T15:24:34.013Z,3.28
2023-06-14T15:27:08.976Z,5.45
2023-06-14T15:29:36.475Z,8.43
2023-06-14T15:32:03.853Z,4.90
2023-06-14T15:34:31.058Z,6.03
2023-06-14T15:36:58.449Z,3.85
2023-06-14T15:39:26.213Z,8.10
2023-06-14T15:41:53.589Z,13.00
2023-06-14T15:44:21.047Z,7.80
2023-06-14T15:46:49.493Z,7.25
2023-06-14T15:49:19.291Z,3.83
2023-06-14T15:51:47.208Z,5.90
2023-06-14T15:54:14.825Z,8.68
2023-06-14T15:56:42.062Z,9.43
2023-06-14T15:59:09.266Z,6.57
2023-06-14T16:01:37.672Z,5.50
2023-06-14T16:04:06.002Z,4.43
2023-06-14T16:06:37.272Z,5.18
2023-06-14T16:09:05.448Z,4.57
2023-06-14T16:11:32.671Z,3.90
2023-06-14T16:13:59.915Z,5.53
2023-06-14T16:16:27.308Z,6.28
2023-06-14T16:18:55.583Z,6.97
2023-06-14T16:21:22.905Z,4.72
2023-06-14T16:23:50.297Z,5.10
2023-06-14T16:26:17.572Z,4.60
2023-06-14T16:28:45.177Z,6.97
2023-06-14T16:31:15.935Z,4.90
2023-06-14T16:33:43.141Z,11.90
2023-06-14T16:36:10.249Z,6.78
2023-06-14T16:38:37.449Z,5.22
2023-06-14T16:41:04.790Z,4.72
2023-06-14T16:43:32.093Z,7.03
2023-06-14T16:45:59.290Z,5.22
2023-06-14T16:48:26.482Z,3.15
2023-06-14T16:50:53.759Z,7.07
2023-06-14T16:53:39.717Z,8.77
2023-06-14T16:56:07.524Z,3.25
2023-06-14T16:58:34.712Z,8.55
2023-06-14T17:01:01.951Z,4.05
2023-06-14T17:03:29.249Z,5.40
2023-06-14T17:05:58.115Z,5.20
2023-06-14T17:08:26.395Z,6.63
2023-06-14T17:10:54.955Z,8.27
2023-06-14T17:13:22.711Z,5.10
2023-06-14T17:15:50.038Z,4.25
2023-06-14T17:18:17.603Z,6.80
2023-06-14T17:20:45.007Z,3.70
2023-06-14T17:23:12.213Z,7.00
2023-06-14T17:25:39.379Z,8.95
2023-06-14T17:28:06.523Z,5.03
2023-06-14T17:30:33.710Z,6.45
2023-06-14T17:33:01.137Z,4.95
2023-06-14T17:35:28.471Z,8.07
2023-06-14T17:37:55.723Z,6.13
2023-06-14T17:40:22.966Z,6.88
2023-06-14T17:42:50.160Z,5.88
2023-06-14T17:45:17.403Z,8.50
2023-06-14T17:47:44.629Z,6.35
2023-06-14T17:50:11.878Z,3.55
2023-06-14T17:52:39.212Z,5.20
2023-06-14T17:55:07.067Z,8.85
2023-06-14T17:57:34.283Z,9.07
2023-06-14T18:00:01.544Z,4.72
2023-06-14T18:02:33.497Z,7.97
2023-06-14T18:05:01.016Z,11.75
2023-06-14T18:07:29.318Z,8.75
2023-06-14T18:09:56.503Z,11.13
2023-06-14T18:12:23.710Z,6.43
2023-06-14T18:14:50.981Z,6.78
2023-06-14T18:17:18.320Z,9.32
2023-06-14T18:19:45.693Z,11.48
2023-06-14T18:22:13.022Z,6.00
2023-06-14T18:24:40.283Z,4.43
2023-06-14T18:27:10.143Z,5.78
2023-06-14T18:29:37.363Z,9.20
2023-06-14T18:32:05.034Z,7.13
2023-06-14T18:34:32.311Z,8.65
2023-06-14T18:36:59.494Z,8.68
2023-06-14T18:39:26.788Z,6.00
2023-06-14T18:41:54.196Z,8.30
2023-06-14T18:44:21.429Z,9.73
2023-06-14T18:46:48.692Z,7.70
2023-06-14T18:49:16.035Z,11.43
2023-06-14T18:51:43.780Z,8.13
2023-06-14T18:54:11.553Z,6.30
2023-06-14T18:56:39.094Z,6.97
2023-06-14T18:59:06.297Z,8.80
2023-06-14T19:01:33.622Z,8.27
2023-06-14T19:04:01.044Z,12.57
2023-06-14T19:06:28.457Z,7.10
2023-06-14T19:08:55.911Z,12.07
2023-06-14T19:11:23.138Z,11.48
2023-06-14T19:13:50.544Z,9.52
2023-06-14T19:16:17.705Z,14.55
2023-06-14T19:18:45.069Z,9.85
2023-06-14T19:21:12.378Z,12.95
2023-06-14T19:23:39.731Z,11.85
2023-06-14T19:26:07.882Z,7.03
2023-06-14T19:28:36.588Z,8.55
2023-06-14T19:31:03.740Z,6.65
2023-06-14T19:33:30.932Z,6.45
2023-06-14T19:35:58.099Z,12.07
2023-06-14T19:38:25.477Z,7.57
2023-06-14T19:40:52.758Z,11.07
2023-06-14T19:43:19.968Z,8.38
2023-06-14T19:45:47.381Z,6.03
2023-06-14T19:48:20.674Z,16.60
2023-06-14T19:50:51.475Z,8.32
2023-06-14T19:55:46.607Z,7.35
2023-06-14T19:58:13.854Z,10.13
2023-06-14T20:00:41.174Z,11.48
2023-06-14T20:03:08.514Z,9.52
2023-06-14T20:05:36.570Z,9.82
2023-06-14T20:08:04.308Z,9.95
2023-06-14T20:10:31.684Z,13.10
2023-06-14T20:12:59.006Z,19.38
2023-06-14T20:15:27.246Z,12.25
2023-06-14T20:17:54.419Z,14.93
2023-06-14T20:20:21.602Z,11.50
2023-06-14T20:22:48.753Z,13.00
2023-06-14T20:25:16.379Z,12.43
2023-06-14T20:27:43.867Z,13.60
2023-06-14T20:30:11.692Z,23.52
2023-06-14T20:32:38.980Z,13.05
2023-06-14T20:35:06.573Z,22.10
2023-06-14T20:37:33.824Z,17.08
2023-06-14T20:40:06.997Z,9.55
2023-06-14T20:42:34.805Z,11.95
2023-06-14T20:45:03.778Z,12.68
2023-06-14T20:47:34.520Z,12.60
2023-06-14T20:50:01.837Z,9.15
2023-06-14T20:52:30.943Z,12.20
2023-06-14T20:54:59.035Z,7.95
2023-06-14T20:57:26.746Z,6.50
2023-06-14T20:59:53.974Z,10.05
2023-06-14T21:02:21.420Z,6.78
2023-06-14T21:04:48.773Z,11.63
2023-06-14T21:07:16.398Z,14.85
2023-06-14T21:09:43.894Z,7.60
2023-06-14T21:12:13.058Z,11.65
2023-06-14T21:14:40.941Z,10.55
2023-06-14T21:17:09.863Z,10.48
2023-06-14T21:19:38.743Z,10.93
2023-06-14T21:22:06.450Z,18.15
2023-06-14T21:24:33.849Z,11.40
2023-06-14T21:27:01.332Z,11.55
2023-06-14T21:29:28.995Z,17.13
2023-06-14T21:31:56.893Z,10.10
2023-06-14T21:34:24.312Z,11.07
2023-06-14T21:36:53.698Z,9.98
2023-06-14T21:39:24.789Z,9.10
2023-06-14T21:41:53.467Z,11.02
2023-06-14T21:44:20.637Z,8.38
2023-06-14T21:46:47.874Z,9.25
2023-06-14T21:49:15.062Z,11.93
2023-06-14T21:51:42.430Z,9.98
2023-06-14T21:54:11.119Z,10.55
2023-06-14T21:56:38.527Z,9.60
2023-06-14T21:59:05.687Z,7.60
2023-06-14T22:01:32.865Z,12.85
2023-06-14T22:04:00.152Z,8.82
2023-06-14T22:06:27.426Z,6.88
2023-06-14T22:08:55.013Z,10.35
2023-06-14T22:11:22.332Z,7.10
2023-06-14T22:13:50.565Z,7.50
2023-06-14T22:16:17.810Z,5.30
2023-06-14T22:18:47.057Z,9.25
2023-06-14T22:21:20.636Z,6.40
2023-06-14T22:23:48.086Z,6.30
2023-06-14T22:26:20.591Z,6.30
2023-06-14T22:28:54.468Z,6.18
2023-06-14T22:31:21.810Z,15.25
2023-06-14T22:33:52.336Z,7.30
2023-06-14T22:36:19.582Z,6.65
2023-06-14T22:38:47.067Z,11.20
2023-06-14T22:41:14.804Z,13.18
2023-06-14T22:43:44.475Z,7.47
2023-06-14T22:46:20.842Z,7.07
2023-06-14T22:48:51.978Z,6.22
2023-06-14T22:51:21.345Z,14.18
2023-06-14T22:53:52.638Z,6.65
2023-06-14T22:56:21.687Z,7.20
2023-06-14T22:58:49.602Z,6.70
2023-06-14T23:01:19.117Z,6.40
2023-06-14T23:03:49.184Z,9.57
2023-06-14T23:06:26.144Z,10.57
2023-06-14T23:08:57.637Z,9.80
2023-06-14T23:11:25.153Z,10.07
2023-06-14T23:13:54.568Z,15.80
2023-06-14T23:16:22.331Z,9.07
2023-06-14T23:18:49.860Z,7.88
2023-06-14T23:21:18.374Z,8.57
2023-06-14T23:23:51.302Z,7.72
2023-06-14T23:26:22.118Z,8.10
2023-06-14T23:28:54.926Z,9.23
2023-06-14T23:31:24.063Z,13.07
2023-06-14T23:33:53.936Z,8.77
2023-06-14T23:36:21.739Z,12.38
2023-06-14T23:38:49.689Z,10.48
2023-06-14T23:41:17.593Z,17.85
2023-06-14T23:43:46.486Z,11.02
2023-06-14T23:46:16.887Z,10.25
2023-06-14T23:48:44.679Z,8.77
2023-06-14T23:51:11.873Z,8.18
2023-06-14T23:53:39.122Z,8.98
2023-06-14T23:56:10.767Z,9.82
2023-06-14T23:58:38.886Z,10.07
